sensor_id;sensor_type;location;lat;lon;timestamp;P1;durP1;ratioP1;P2;durP2;ratioP2
7957;SDS011;4024;52.172;5.378;2023-04-24T00:01:17;2.17;;;1.77;;
7957;SDS011;4024;52.172;5.378;2023-04-24T00:03:44;2.60;;;1.77;;
7957;SDS011;4024;52.172;5.378;2023-04-24T00:06:09;1.87;;;1.70;;
7957;SDS011;4024;52.172;5.378;2023-04-24T00:08:35;2.77;;;1.90;;
7957;SDS011;4024;52.172;5.378;2023-04-24T00:11:01;3.20;;;1.80;;
7957;SDS011;4024;52.172;5.378;2023-04-24T00:13:26;1.73;;;1.60;;
7957;SDS011;4024;52.172;5.378;2023-04-24T00:15:53;2.20;;;1.93;;
7957;SDS011;4024;52.172;5.378;2023-04-24T00:18:19;4.40;;;2.10;;
7957;SDS011;4024;52.172;5.378;2023-04-24T00:20:45;1.80;;;1.63;;
7957;SDS011;4024;52.172;5.378;2023-04-24T00:23:11;1.87;;;1.73;;
7957;SDS011;4024;52.172;5.378;2023-04-24T00:25:37;2.73;;;1.70;;
7957;SDS011;4024;52.172;5.378;2023-04-24T00:28:03;5.00;;;1.80;;
7957;SDS011;4024;52.172;5.378;2023-04-24T00:30:29;1.67;;;1.57;;
7957;SDS011;4024;52.172;5.378;2023-04-24T00:32:54;1.73;;;1.20;;
7957;SDS011;4024;52.172;5.378;2023-04-24T00:35:20;3.93;;;1.60;;
7957;SDS011;4024;52.172;5.378;2023-04-24T00:37:45;1.70;;;1.60;;
7957;SDS011;4024;52.172;5.378;2023-04-24T00:40:11;3.10;;;1.70;;
7957;SDS011;4024;52.172;5.378;2023-04-24T00:42:37;2.17;;;1.50;;
7957;SDS011;4024;52.172;5.378;2023-04-24T00:45:05;1.73;;;1.63;;
7957;SDS011;4024;52.172;5.378;2023-04-24T00:47:31;1.70;;;1.60;;
7957;SDS011;4024;52.172;5.378;2023-04-24T00:49:58;1.53;;;1.43;;
7957;SDS011;4024;52.172;5.378;2023-04-24T00:52:26;1.67;;;1.50;;
7957;SDS011;4024;52.172;5.378;2023-04-24T00:54:51;1.57;;;1.47;;
7957;SDS011;4024;52.172;5.378;2023-04-24T00:57:17;2.03;;;1.70;;
7957;SDS011;4024;52.172;5.378;2023-04-24T00:59:43;1.80;;;1.40;;
7957;SDS011;4024;52.172;5.378;2023-04-24T01:02:09;1.80;;;1.70;;
7957;SDS011;4024;52.172;5.378;2023-04-24T01:04:35;1.80;;;1.70;;
7957;SDS011;4024;52.172;5.378;2023-04-24T01:07:01;1.80;;;1.70;;
7957;SDS011;4024;52.172;5.378;2023-04-24T01:09:27;1.87;;;1.70;;
7957;SDS011;4024;52.172;5.378;2023-04-24T01:11:53;1.87;;;1.73;;
7957;SDS011;4024;52.172;5.378;2023-04-24T01:14:19;2.27;;;1.83;;
7957;SDS011;4024;52.172;5.378;2023-04-24T01:16:45;2.57;;;1.97;;
7957;SDS011;4024;52.172;5.378;2023-04-24T01:19:11;2.43;;;2.10;;
7957;SDS011;4024;52.172;5.378;2023-04-24T01:21:37;2.10;;;2.00;;
7957;SDS011;4024;52.172;5.378;2023-04-24T01:24:04;3.30;;;2.20;;
7957;SDS011;4024;52.172;5.378;2023-04-24T01:26:30;3.00;;;2.70;;
7957;SDS011;4024;52.172;5.378;2023-04-24T01:28:56;3.00;;;2.70;;
7957;SDS011;4024;52.172;5.378;2023-04-24T01:31:22;2.87;;;2.33;;
7957;SDS011;4024;52.172;5.378;2023-04-24T01:33:49;3.27;;;2.97;;
7957;SDS011;4024;52.172;5.378;2023-04-24T01:36:15;2.83;;;2.63;;
7957;SDS011;4024;52.172;5.378;2023-04-24T01:38:42;3.50;;;3.20;;
7957;SDS011;4024;52.172;5.378;2023-04-24T01:41:07;3.83;;;3.37;;
7957;SDS011;4024;52.172;5.378;2023-04-24T01:43:33;3.40;;;3.10;;
7957;SDS011;4024;52.172;5.378;2023-04-24T01:45:59;3.80;;;3.40;;
7957;SDS011;4024;52.172;5.378;2023-04-24T01:48:24;3.50;;;3.20;;
7957;SDS011;4024;52.172;5.378;2023-04-24T01:50:50;4.00;;;3.70;;
7957;SDS011;4024;52.172;5.378;2023-04-24T01:53:16;4.03;;;3.70;;
7957;SDS011;4024;52.172;5.378;2023-04-24T01:55:41;4.30;;;3.90;;
7957;SDS011;4024;52.172;5.378;2023-04-24T01:58:07;4.50;;;3.90;;
7957;SDS011;4024;52.172;5.378;2023-04-24T02:00:33;4.77;;;4.37;;
7957;SDS011;4024;52.172;5.378;2023-04-24T02:02:58;4.97;;;4.07;;
7957;SDS011;4024;52.172;5.378;2023-04-24T02:05:26;4.70;;;4.30;;
7957;SDS011;4024;52.172;5.378;2023-04-24T02:07:52;5.23;;;4.73;;
7957;SDS011;4024;52.172;5.378;2023-04-24T02:10:18;4.73;;;4.33;;
7957;SDS011;4024;52.172;5.378;2023-04-24T02:12:43;4.90;;;4.50;;
7957;SDS011;4024;52.172;5.378;2023-04-24T02:15:09;5.20;;;4.70;;
7957;SDS011;4024;52.172;5.378;2023-04-24T02:17:35;5.50;;;5.00;;
7957;SDS011;4024;52.172;5.378;2023-04-24T02:20:01;5.33;;;4.83;;
7957;SDS011;4024;52.172;5.378;2023-04-24T02:22:27;5.60;;;5.10;;
7957;SDS011;4024;52.172;5.378;2023-04-24T02:24:52;6.20;;;5.53;;
7957;SDS011;4024;52.172;5.378;2023-04-24T02:27:18;5.97;;;5.37;;
7957;SDS011;4024;52.172;5.378;2023-04-24T02:29:44;5.97;;;5.27;;
7957;SDS011;4024;52.172;5.378;2023-04-24T02:32:10;5.47;;;4.97;;
7957;SDS011;4024;52.172;5.378;2023-04-24T02:34:37;5.53;;;5.03;;
7957;SDS011;4024;52.172;5.378;2023-04-24T02:37:03;5.47;;;4.93;;
7957;SDS011;4024;52.172;5.378;2023-04-24T02:39:28;5.03;;;4.57;;
7957;SDS011;4024;52.172;5.378;2023-04-24T02:41:54;5.90;;;5.00;;
7957;SDS011;4024;52.172;5.378;2023-04-24T02:44:19;4.93;;;4.30;;
7957;SDS011;4024;52.172;5.378;2023-04-24T02:46:46;5.53;;;5.03;;
7957;SDS011;4024;52.172;5.378;2023-04-24T02:49:12;4.70;;;4.30;;
7957;SDS011;4024;52.172;5.378;2023-04-24T02:51:37;4.60;;;4.20;;
7957;SDS011;4024;52.172;5.378;2023-04-24T02:54:06;5.57;;;5.07;;
7957;SDS011;4024;52.172;5.378;2023-04-24T02:56:32;4.90;;;4.50;;
7957;SDS011;4024;52.172;5.378;2023-04-24T02:58:58;5.10;;;4.63;;
7957;SDS011;4024;52.172;5.378;2023-04-24T03:01:24;3.47;;;3.17;;
7957;SDS011;4024;52.172;5.378;2023-04-24T03:03:50;2.70;;;2.50;;
7957;SDS011;4024;52.172;5.378;2023-04-24T03:06:15;3.13;;;2.83;;
7957;SDS011;4024;52.172;5.378;2023-04-24T03:08:41;3.43;;;2.30;;
7957;SDS011;4024;52.172;5.378;2023-04-24T03:11:06;3.03;;;2.27;;
7957;SDS011;4024;52.172;5.378;2023-04-24T03:13:32;3.40;;;2.50;;
7957;SDS011;4024;52.172;5.378;2023-04-24T03:15:57;2.10;;;1.90;;
7957;SDS011;4024;52.172;5.378;2023-04-24T03:18:24;1.93;;;1.80;;
7957;SDS011;4024;52.172;5.378;2023-04-24T03:20:50;3.20;;;1.97;;
7957;SDS011;4024;52.172;5.378;2023-04-24T03:23:16;2.00;;;1.90;;
7957;SDS011;4024;52.172;5.378;2023-04-24T03:25:41;1.80;;;1.70;;
7957;SDS011;4024;52.172;5.378;2023-04-24T03:28:08;2.90;;;1.80;;
7957;SDS011;4024;52.172;5.378;2023-04-24T03:30:33;2.23;;;2.00;;
7957;SDS011;4024;52.172;5.378;2023-04-24T03:32:59;2.10;;;2.00;;
7957;SDS011;4024;52.172;5.378;2023-04-24T03:35:25;2.00;;;1.77;;
7957;SDS011;4024;52.172;5.378;2023-04-24T03:37:50;1.90;;;1.80;;
7957;SDS011;4024;52.172;5.378;2023-04-24T03:40:16;2.37;;;2.17;;
7957;SDS011;4024;52.172;5.378;2023-04-24T03:42:42;4.03;;;2.00;;
7957;SDS011;4024;52.172;5.378;2023-04-24T03:45:07;2.30;;;2.10;;
7957;SDS011;4024;52.172;5.378;2023-04-24T03:47:34;2.30;;;2.10;;
7957;SDS011;4024;52.172;5.378;2023-04-24T03:50:01;2.33;;;2.13;;
7957;SDS011;4024;52.172;5.378;2023-04-24T03:52:27;2.57;;;2.37;;
7957;SDS011;4024;52.172;5.378;2023-04-24T03:54:52;3.43;;;2.23;;
7957;SDS011;4024;52.172;5.378;2023-04-24T03:57:18;2.77;;;2.23;;
7957;SDS011;4024;52.172;5.378;2023-04-24T03:59:44;2.43;;;2.23;;
7957;SDS011;4024;52.172;5.378;2023-04-24T04:02:09;2.10;;;1.93;;
7957;SDS011;4024;52.172;5.378;2023-04-24T04:04:35;2.43;;;2.23;;
7957;SDS011;4024;52.172;5.378;2023-04-24T04:07:00;2.47;;;2.27;;
7957;SDS011;4024;52.172;5.378;2023-04-24T04:09:28;1.93;;;1.83;;
7957;SDS011;4024;52.172;5.378;2023-04-24T04:11:54;3.23;;;2.17;;
7957;SDS011;4024;52.172;5.378;2023-04-24T04:14:20;2.43;;;2.10;;
7957;SDS011;4024;52.172;5.378;2023-04-24T04:16:46;2.70;;;2.00;;
7957;SDS011;4024;52.172;5.378;2023-04-24T04:19:12;2.43;;;2.03;;
7957;SDS011;4024;52.172;5.378;2023-04-24T04:21:37;2.10;;;1.90;;
7957;SDS011;4024;52.172;5.378;2023-04-24T04:24:03;2.07;;;1.87;;
7957;SDS011;4024;52.172;5.378;2023-04-24T04:26:30;2.53;;;2.10;;
7957;SDS011;4024;52.172;5.378;2023-04-24T04:28:57;2.63;;;1.90;;
7957;SDS011;4024;52.172;5.378;2023-04-24T04:31:23;2.40;;;2.20;;
7957;SDS011;4024;52.172;5.378;2023-04-24T04:33:49;2.30;;;2.10;;
7957;SDS011;4024;52.172;5.378;2023-04-24T04:36:15;2.30;;;2.10;;
7957;SDS011;4024;52.172;5.378;2023-04-24T04:38:43;2.20;;;2.00;;
7957;SDS011;4024;52.172;5.378;2023-04-24T04:41:09;2.20;;;1.97;;
7957;SDS011;4024;52.172;5.378;2023-04-24T04:43:35;2.60;;;2.33;;
7957;SDS011;4024;52.172;5.378;2023-04-24T04:46:01;2.67;;;2.40;;
7957;SDS011;4024;52.172;5.378;2023-04-24T04:48:28;3.03;;;2.50;;
7957;SDS011;4024;52.172;5.378;2023-04-24T04:50:56;2.50;;;2.30;;
7957;SDS011;4024;52.172;5.378;2023-04-24T04:53:22;2.83;;;2.63;;
7957;SDS011;4024;52.172;5.378;2023-04-24T04:55:47;2.90;;;2.70;;
7957;SDS011;4024;52.172;5.378;2023-04-24T04:58:13;3.17;;;2.60;;
7957;SDS011;4024;52.172;5.378;2023-04-24T05:00:39;3.53;;;2.83;;
7957;SDS011;4024;52.172;5.378;2023-04-24T05:03:04;4.77;;;3.23;;
7957;SDS011;4024;52.172;5.378;2023-04-24T05:05:30;4.07;;;3.20;;
7957;SDS011;4024;52.172;5.378;2023-04-24T05:07:55;4.40;;;3.10;;
7957;SDS011;4024;52.172;5.378;2023-04-24T05:10:21;5.23;;;3.50;;
7957;SDS011;4024;52.172;5.378;2023-04-24T05:12:46;4.53;;;3.73;;
7957;SDS011;4024;52.172;5.378;2023-04-24T05:15:12;4.40;;;4.00;;
7957;SDS011;4024;52.172;5.378;2023-04-24T05:17:38;4.63;;;4.20;;
7957;SDS011;4024;52.172;5.378;2023-04-24T05:20:05;4.30;;;3.90;;
7957;SDS011;4024;52.172;5.378;2023-04-24T05:22:31;5.33;;;4.37;;
7957;SDS011;4024;52.172;5.378;2023-04-24T05:24:57;7.77;;;4.80;;
7957;SDS011;4024;52.172;5.378;2023-04-24T05:27:23;6.10;;;4.40;;
7957;SDS011;4024;52.172;5.378;2023-04-24T05:29:49;6.23;;;4.47;;
7957;SDS011;4024;52.172;5.378;2023-04-24T05:32:14;7.13;;;4.93;;
7957;SDS011;4024;52.172;5.378;2023-04-24T05:34:40;5.37;;;4.83;;
7957;SDS011;4024;52.172;5.378;2023-04-24T05:37:06;5.00;;;4.40;;
7957;SDS011;4024;52.172;5.378;2023-04-24T05:39:34;5.23;;;4.73;;
7957;SDS011;4024;52.172;5.378;2023-04-24T05:42:00;5.10;;;4.60;;
7957;SDS011;4024;52.172;5.378;2023-04-24T05:44:26;6.37;;;5.03;;
7957;SDS011;4024;52.172;5.378;2023-04-24T05:46:52;12.10;;;5.23;;
7957;SDS011;4024;52.172;5.378;2023-04-24T05:49:20;4.70;;;4.20;;
7957;SDS011;4024;52.172;5.378;2023-04-24T05:51:45;4.47;;;3.90;;
7957;SDS011;4024;52.172;5.378;2023-04-24T05:54:11;5.87;;;3.97;;
7957;SDS011;4024;52.172;5.378;2023-04-24T05:56:37;4.23;;;3.70;;
7957;SDS011;4024;52.172;5.378;2023-04-24T05:59:03;5.57;;;4.10;;
7957;SDS011;4024;52.172;5.378;2023-04-24T06:01:28;4.33;;;3.50;;
7957;SDS011;4024;52.172;5.378;2023-04-24T06:03:54;5.13;;;3.27;;
7957;SDS011;4024;52.172;5.378;2023-04-24T06:06:20;2.90;;;2.60;;
7957;SDS011;4024;52.172;5.378;2023-04-24T06:08:45;2.67;;;2.10;;
7957;SDS011;4024;52.172;5.378;2023-04-24T06:11:11;2.93;;;2.57;;
7957;SDS011;4024;52.172;5.378;2023-04-24T06:13:37;2.97;;;2.10;;
7957;SDS011;4024;52.172;5.378;2023-04-24T06:16:02;2.90;;;1.67;;
7957;SDS011;4024;52.172;5.378;2023-04-24T06:18:28;1.87;;;1.63;;
7957;SDS011;4024;52.172;5.378;2023-04-24T06:20:54;1.83;;;1.73;;
7957;SDS011;4024;52.172;5.378;2023-04-24T06:23:20;1.57;;;1.47;;
7957;SDS011;4024;52.172;5.378;2023-04-24T06:25:46;1.90;;;1.43;;
7957;SDS011;4024;52.172;5.378;2023-04-24T06:28:12;2.67;;;1.80;;
7957;SDS011;4024;52.172;5.378;2023-04-24T06:30:37;3.40;;;2.07;;
7957;SDS011;4024;52.172;5.378;2023-04-24T06:33:03;6.63;;;2.50;;
7957;SDS011;4024;52.172;5.378;2023-04-24T06:35:28;4.87;;;3.00;;
7957;SDS011;4024;52.172;5.378;2023-04-24T06:37:54;6.03;;;4.60;;
7957;SDS011;4024;52.172;5.378;2023-04-24T06:40:21;8.00;;;6.27;;
7957;SDS011;4024;52.172;5.378;2023-04-24T06:42:47;14.23;;;8.20;;
7957;SDS011;4024;52.172;5.378;2023-04-24T06:45:12;9.33;;;8.33;;
7957;SDS011;4024;52.172;5.378;2023-04-24T06:47:38;11.47;;;9.17;;
7957;SDS011;4024;52.172;5.378;2023-04-24T06:50:04;11.77;;;9.03;;
7957;SDS011;4024;52.172;5.378;2023-04-24T06:52:30;10.53;;;8.90;;
7957;SDS011;4024;52.172;5.378;2023-04-24T06:55:04;11.20;;;9.17;;
7957;SDS011;4024;52.172;5.378;2023-04-24T06:57:30;11.07;;;9.17;;
7957;SDS011;4024;52.172;5.378;2023-04-24T06:59:56;13.07;;;9.63;;
7957;SDS011;4024;52.172;5.378;2023-04-24T07:02:22;14.27;;;9.93;;
7957;SDS011;4024;52.172;5.378;2023-04-24T07:04:47;12.63;;;9.93;;
7957;SDS011;4024;52.172;5.378;2023-04-24T07:07:13;14.67;;;9.80;;
7957;SDS011;4024;52.172;5.378;2023-04-24T07:09:39;14.13;;;9.53;;
7957;SDS011;4024;52.172;5.378;2023-04-24T07:12:10;14.77;;;10.00;;
7957;SDS011;4024;52.172;5.378;2023-04-24T07:14:36;14.67;;;10.27;;
7957;SDS011;4024;52.172;5.378;2023-04-24T07:17:03;17.47;;;10.13;;
7957;SDS011;4024;52.172;5.378;2023-04-24T07:19:29;13.67;;;10.37;;
7957;SDS011;4024;52.172;5.378;2023-04-24T07:21:54;13.80;;;9.33;;
7957;SDS011;4024;52.172;5.378;2023-04-24T07:24:20;15.43;;;9.00;;
7957;SDS011;4024;52.172;5.378;2023-04-24T07:26:46;14.93;;;10.20;;
7957;SDS011;4024;52.172;5.378;2023-04-24T07:29:11;15.63;;;9.90;;
7957;SDS011;4024;52.172;5.378;2023-04-24T07:31:38;14.77;;;9.50;;
7957;SDS011;4024;52.172;5.378;2023-04-24T07:34:06;13.23;;;8.97;;
7957;SDS011;4024;52.172;5.378;2023-04-24T07:36:31;11.97;;;9.10;;
7957;SDS011;4024;52.172;5.378;2023-04-24T07:38:57;14.50;;;8.63;;
7957;SDS011;4024;52.172;5.378;2023-04-24T07:41:23;13.40;;;9.43;;
7957;SDS011;4024;52.172;5.378;2023-04-24T07:43:49;11.80;;;9.27;;
7957;SDS011;4024;52.172;5.378;2023-04-24T07:46:14;13.27;;;8.33;;
7957;SDS011;4024;52.172;5.378;2023-04-24T07:48:40;15.07;;;8.80;;
7957;SDS011;4024;52.172;5.378;2023-04-24T07:51:06;9.63;;;8.17;;
7957;SDS011;4024;52.172;5.378;2023-04-24T07:53:32;15.70;;;8.47;;
7957;SDS011;4024;52.172;5.378;2023-04-24T07:55:58;13.50;;;8.47;;
7957;SDS011;4024;52.172;5.378;2023-04-24T07:58:24;12.67;;;8.80;;
7957;SDS011;4024;52.172;5.378;2023-04-24T08:00:49;11.67;;;8.80;;
7957;SDS011;4024;52.172;5.378;2023-04-24T08:03:15;14.67;;;8.93;;
7957;SDS011;4024;52.172;5.378;2023-04-24T08:05:43;14.23;;;8.20;;
7957;SDS011;4024;52.172;5.378;2023-04-24T08:08:10;15.27;;;8.40;;
7957;SDS011;4024;52.172;5.378;2023-04-24T08:10:42;11.13;;;7.87;;
7957;SDS011;4024;52.172;5.378;2023-04-24T08:13:08;14.10;;;6.90;;
7957;SDS011;4024;52.172;5.378;2023-04-24T08:15:34;13.07;;;6.77;;
7957;SDS011;4024;52.172;5.378;2023-04-24T08:18:00;14.10;;;6.53;;
7957;SDS011;4024;52.172;5.378;2023-04-24T08:20:25;11.13;;;6.13;;
7957;SDS011;4024;52.172;5.378;2023-04-24T08:22:51;16.27;;;6.93;;
7957;SDS011;4024;52.172;5.378;2023-04-24T08:25:17;10.67;;;5.10;;
7957;SDS011;4024;52.172;5.378;2023-04-24T08:27:44;7.17;;;4.53;;
7957;SDS011;4024;52.172;5.378;2023-04-24T08:30:09;7.67;;;4.60;;
7957;SDS011;4024;52.172;5.378;2023-04-24T08:32:36;9.33;;;5.03;;
7957;SDS011;4024;52.172;5.378;2023-04-24T08:35:01;11.83;;;5.80;;
7957;SDS011;4024;52.172;5.378;2023-04-24T08:37:28;14.67;;;4.80;;
7957;SDS011;4024;52.172;5.378;2023-04-24T08:39:53;7.30;;;4.50;;
7957;SDS011;4024;52.172;5.378;2023-04-24T08:42:20;19.60;;;5.47;;
7957;SDS011;4024;52.172;5.378;2023-04-24T08:44:46;13.97;;;5.17;;
7957;SDS011;4024;52.172;5.378;2023-04-24T08:47:14;15.40;;;5.20;;
7957;SDS011;4024;52.172;5.378;2023-04-24T08:49:41;8.63;;;4.80;;
7957;SDS011;4024;52.172;5.378;2023-04-24T08:52:07;12.30;;;4.10;;
7957;SDS011;4024;52.172;5.378;2023-04-24T08:54:33;12.33;;;4.30;;
7957;SDS011;4024;52.172;5.378;2023-04-24T08:57:00;18.03;;;4.57;;
7957;SDS011;4024;52.172;5.378;2023-04-24T08:59:28;9.73;;;3.60;;
7957;SDS011;4024;52.172;5.378;2023-04-24T09:01:57;12.27;;;3.80;;
7957;SDS011;4024;52.172;5.378;2023-04-24T09:04:23;13.83;;;4.10;;
7957;SDS011;4024;52.172;5.378;2023-04-24T09:06:54;12.57;;;3.80;;
7957;SDS011;4024;52.172;5.378;2023-04-24T09:09:22;9.30;;;3.00;;
7957;SDS011;4024;52.172;5.378;2023-04-24T09:11:48;8.87;;;4.10;;
7957;SDS011;4024;52.172;5.378;2023-04-24T09:14:15;10.23;;;4.47;;
7957;SDS011;4024;52.172;5.378;2023-04-24T09:16:42;9.43;;;3.80;;
7957;SDS011;4024;52.172;5.378;2023-04-24T09:19:07;11.07;;;3.97;;
7957;SDS011;4024;52.172;5.378;2023-04-24T09:21:34;11.90;;;3.90;;
7957;SDS011;4024;52.172;5.378;2023-04-24T09:24:01;11.13;;;3.90;;
7957;SDS011;4024;52.172;5.378;2023-04-24T09:26:29;13.13;;;3.80;;
7957;SDS011;4024;52.172;5.378;2023-04-24T09:28:56;11.53;;;4.00;;
7957;SDS011;4024;52.172;5.378;2023-04-24T09:31:22;9.00;;;3.93;;
7957;SDS011;4024;52.172;5.378;2023-04-24T09:33:55;8.00;;;3.13;;
7957;SDS011;4024;52.172;5.378;2023-04-24T09:36:29;8.83;;;3.70;;
7957;SDS011;4024;52.172;5.378;2023-04-24T09:39:06;11.73;;;3.70;;
7957;SDS011;4024;52.172;5.378;2023-04-24T09:41:33;9.33;;;3.70;;
7957;SDS011;4024;52.172;5.378;2023-04-24T09:46:59;9.57;;;3.43;;
7957;SDS011;4024;52.172;5.378;2023-04-24T09:49:27;13.20;;;3.90;;
7957;SDS011;4024;52.172;5.378;2023-04-24T09:52:07;8.60;;;3.43;;
7957;SDS011;4024;52.172;5.378;2023-04-24T09:54:36;6.93;;;3.40;;
7957;SDS011;4024;52.172;5.378;2023-04-24T09:57:02;7.77;;;3.77;;
7957;SDS011;4024;52.172;5.378;2023-04-24T09:59:28;7.07;;;3.03;;
7957;SDS011;4024;52.172;5.378;2023-04-24T10:01:54;6.37;;;2.90;;
7957;SDS011;4024;52.172;5.378;2023-04-24T10:04:22;8.00;;;3.23;;
7957;SDS011;4024;52.172;5.378;2023-04-24T10:06:49;7.53;;;3.40;;
7957;SDS011;4024;52.172;5.378;2023-04-24T10:09:17;7.70;;;3.20;;
7957;SDS011;4024;52.172;5.378;2023-04-24T10:11:44;8.97;;;3.60;;
7957;SDS011;4024;52.172;5.378;2023-04-24T10:14:18;11.23;;;3.20;;
7957;SDS011;4024;52.172;5.378;2023-04-24T10:16:46;7.70;;;3.20;;
7957;SDS011;4024;52.172;5.378;2023-04-24T10:19:12;6.37;;;2.93;;
7957;SDS011;4024;52.172;5.378;2023-04-24T10:21:40;6.87;;;3.23;;
7957;SDS011;4024;52.172;5.378;2023-04-24T10:24:10;5.47;;;3.10;;
7957;SDS011;4024;52.172;5.378;2023-04-24T10:26:37;6.00;;;2.43;;
7957;SDS011;4024;52.172;5.378;2023-04-24T10:29:05;7.90;;;2.50;;
7957;SDS011;4024;52.172;5.378;2023-04-24T10:31:34;3.37;;;2.03;;
7957;SDS011;4024;52.172;5.378;2023-04-24T10:34:01;7.57;;;2.30;;
7957;SDS011;4024;52.172;5.378;2023-04-24T10:36:28;3.27;;;2.20;;
7957;SDS011;4024;52.172;5.378;2023-04-24T10:38:57;5.00;;;1.90;;
7957;SDS011;4024;52.172;5.378;2023-04-24T10:41:26;4.60;;;2.20;;
7957;SDS011;4024;52.172;5.378;2023-04-24T10:44:10;6.33;;;2.70;;
7957;SDS011;4024;52.172;5.378;2023-04-24T10:46:38;5.53;;;2.00;;
7957;SDS011;4024;52.172;5.378;2023-04-24T10:49:05;3.77;;;2.10;;
7957;SDS011;4024;52.172;5.378;2023-04-24T10:51:51;6.07;;;1.97;;
7957;SDS011;4024;52.172;5.378;2023-04-24T10:54:41;3.63;;;1.90;;
7957;SDS011;4024;52.172;5.378;2023-04-24T10:59:47;3.83;;;2.00;;
7957;SDS011;4024;52.172;5.378;2023-04-24T11:02:14;7.37;;;2.03;;
7957;SDS011;4024;52.172;5.378;2023-04-24T11:04:41;8.27;;;2.00;;
7957;SDS011;4024;52.172;5.378;2023-04-24T11:07:11;3.23;;;2.00;;
7957;SDS011;4024;52.172;5.378;2023-04-24T11:09:37;3.17;;;2.17;;
7957;SDS011;4024;52.172;5.378;2023-04-24T11:12:08;4.20;;;2.10;;
7957;SDS011;4024;52.172;5.378;2023-04-24T11:17:53;6.17;;;2.40;;
7957;SDS011;4024;52.172;5.378;2023-04-24T11:20:16;4.70;;;2.17;;
7957;SDS011;4024;52.172;5.378;2023-04-24T11:22:42;5.03;;;1.80;;
7957;SDS011;4024;52.172;5.378;2023-04-24T11:25:08;4.73;;;2.20;;
7957;SDS011;4024;52.172;5.378;2023-04-24T11:27:43;2.60;;;2.00;;
7957;SDS011;4024;52.172;5.378;2023-04-24T11:30:11;2.70;;;2.00;;
7957;SDS011;4024;52.172;5.378;2023-04-24T11:32:37;3.90;;;1.70;;
7957;SDS011;4024;52.172;5.378;2023-04-24T11:37:39;3.70;;;1.80;;
7957;SDS011;4024;52.172;5.378;2023-04-24T11:40:07;4.80;;;2.10;;
7957;SDS011;4024;52.172;5.378;2023-04-24T11:42:36;3.60;;;1.70;;
7957;SDS011;4024;52.172;5.378;2023-04-24T11:45:07;3.67;;;1.50;;
7957;SDS011;4024;52.172;5.378;2023-04-24T11:47:34;1.73;;;1.40;;
7957;SDS011;4024;52.172;5.378;2023-04-24T11:50:00;2.50;;;1.10;;
7957;SDS011;4024;52.172;5.378;2023-04-24T11:52:27;2.90;;;1.43;;
7957;SDS011;4024;52.172;5.378;2023-04-24T11:54:53;2.37;;;1.30;;
7957;SDS011;4024;52.172;5.378;2023-04-24T11:57:19;1.60;;;1.30;;
7957;SDS011;4024;52.172;5.378;2023-04-24T11:59:46;2.83;;;1.60;;
7957;SDS011;4024;52.172;5.378;2023-04-24T12:02:24;3.63;;;1.30;;
7957;SDS011;4024;52.172;5.378;2023-04-24T12:04:52;2.97;;;1.40;;
7957;SDS011;4024;52.172;5.378;2023-04-24T12:07:18;3.47;;;1.70;;
7957;SDS011;4024;52.172;5.378;2023-04-24T12:09:45;1.67;;;1.57;;
7957;SDS011;4024;52.172;5.378;2023-04-24T12:12:13;2.90;;;1.50;;
7957;SDS011;4024;52.172;5.378;2023-04-24T12:14:50;4.43;;;1.60;;
7957;SDS011;4024;52.172;5.378;2023-04-24T12:17:27;3.27;;;1.67;;
7957;SDS011;4024;52.172;5.378;2023-04-24T12:19:57;3.93;;;2.03;;
7957;SDS011;4024;52.172;5.378;2023-04-24T12:22:27;3.80;;;1.70;;
7957;SDS011;4024;52.172;5.378;2023-04-24T12:25:00;5.30;;;1.53;;
7957;SDS011;4024;52.172;5.378;2023-04-24T12:27:33;5.90;;;2.03;;
7957;SDS011;4024;52.172;5.378;2023-04-24T12:29:59;4.50;;;2.10;;
7957;SDS011;4024;52.172;5.378;2023-04-24T12:32:26;4.53;;;2.03;;
7957;SDS011;4024;52.172;5.378;2023-04-24T12:34:52;6.07;;;2.10;;
7957;SDS011;4024;52.172;5.378;2023-04-24T12:37:18;6.37;;;2.27;;
7957;SDS011;4024;52.172;5.378;2023-04-24T12:39:46;6.63;;;2.37;;
7957;SDS011;4024;52.172;5.378;2023-04-24T12:42:30;5.97;;;2.63;;
7957;SDS011;4024;52.172;5.378;2023-04-24T12:44:57;4.43;;;1.80;;
7957;SDS011;4024;52.172;5.378;2023-04-24T12:47:24;6.67;;;2.53;;
7957;SDS011;4024;52.172;5.378;2023-04-24T12:49:50;9.07;;;2.70;;
7957;SDS011;4024;52.172;5.378;2023-04-24T12:52:17;10.37;;;3.10;;
7957;SDS011;4024;52.172;5.378;2023-04-24T12:54:49;8.00;;;2.87;;
7957;SDS011;4024;52.172;5.378;2023-04-24T12:57:16;4.70;;;2.73;;
7957;SDS011;4024;52.172;5.378;2023-04-24T12:59:43;7.47;;;2.70;;
7957;SDS011;4024;52.172;5.378;2023-04-24T13:02:09;8.47;;;2.90;;
7957;SDS011;4024;52.172;5.378;2023-04-24T13:04:35;13.03;;;3.47;;
7957;SDS011;4024;52.172;5.378;2023-04-24T13:07:01;6.73;;;3.00;;
7957;SDS011;4024;52.172;5.378;2023-04-24T13:09:26;7.83;;;3.33;;
7957;SDS011;4024;52.172;5.378;2023-04-24T13:11:52;7.77;;;3.43;;
7957;SDS011;4024;52.172;5.378;2023-04-24T13:14:19;8.73;;;3.43;;
7957;SDS011;4024;52.172;5.378;2023-04-24T13:16:45;6.50;;;2.97;;
7957;SDS011;4024;52.172;5.378;2023-04-24T13:19:10;10.80;;;3.30;;
7957;SDS011;4024;52.172;5.378;2023-04-24T13:21:36;10.13;;;3.50;;
7957;SDS011;4024;52.172;5.378;2023-04-24T13:24:01;11.07;;;4.70;;
7957;SDS011;4024;52.172;5.378;2023-04-24T13:26:29;11.40;;;3.60;;
7957;SDS011;4024;52.172;5.378;2023-04-24T13:28:55;10.10;;;3.43;;
7957;SDS011;4024;52.172;5.378;2023-04-24T13:31:21;12.20;;;3.60;;
7957;SDS011;4024;52.172;5.378;2023-04-24T13:33:46;9.23;;;3.80;;
7957;SDS011;4024;52.172;5.378;2023-04-24T13:36:13;12.33;;;4.27;;
7957;SDS011;4024;52.172;5.378;2023-04-24T13:38:38;14.60;;;4.07;;
7957;SDS011;4024;52.172;5.378;2023-04-24T13:41:04;13.00;;;3.43;;
7957;SDS011;4024;52.172;5.378;2023-04-24T13:43:30;9.80;;;3.70;;
7957;SDS011;4024;52.172;5.378;2023-04-24T13:45:55;10.20;;;4.10;;
7957;SDS011;4024;52.172;5.378;2023-04-24T13:48:22;9.93;;;3.63;;
7957;SDS011;4024;52.172;5.378;2023-04-24T13:50:47;11.00;;;4.00;;
7957;SDS011;4024;52.172;5.378;2023-04-24T13:53:14;12.27;;;4.20;;
7957;SDS011;4024;52.172;5.378;2023-04-24T13:55:40;10.43;;;4.10;;
7957;SDS011;4024;52.172;5.378;2023-04-24T13:58:06;14.03;;;4.40;;
7957;SDS011;4024;52.172;5.378;2023-04-24T14:00:32;14.30;;;4.33;;
7957;SDS011;4024;52.172;5.378;2023-04-24T14:02:58;13.73;;;3.80;;
7957;SDS011;4024;52.172;5.378;2023-04-24T14:05:24;13.73;;;3.90;;
7957;SDS011;4024;52.172;5.378;2023-04-24T14:07:50;10.03;;;3.30;;
7957;SDS011;4024;52.172;5.378;2023-04-24T14:10:16;8.53;;;3.73;;
7957;SDS011;4024;52.172;5.378;2023-04-24T14:12:42;8.47;;;3.90;;
7957;SDS011;4024;52.172;5.378;2023-04-24T14:15:08;10.30;;;4.10;;
7957;SDS011;4024;52.172;5.378;2023-04-24T14:17:34;12.87;;;4.17;;
7957;SDS011;4024;52.172;5.378;2023-04-24T14:20:00;11.03;;;4.10;;
7957;SDS011;4024;52.172;5.378;2023-04-24T14:22:26;11.87;;;4.03;;
7957;SDS011;4024;52.172;5.378;2023-04-24T14:24:52;11.20;;;4.13;;
7957;SDS011;4024;52.172;5.378;2023-04-24T14:27:17;13.27;;;4.60;;
7957;SDS011;4024;52.172;5.378;2023-04-24T14:29:43;10.87;;;3.87;;
7957;SDS011;4024;52.172;5.378;2023-04-24T14:32:10;10.13;;;4.23;;
7957;SDS011;4024;52.172;5.378;2023-04-24T14:34:35;11.43;;;4.53;;
7957;SDS011;4024;52.172;5.378;2023-04-24T14:37:01;9.83;;;4.20;;
7957;SDS011;4024;52.172;5.378;2023-04-24T14:39:27;13.43;;;4.17;;
7957;SDS011;4024;52.172;5.378;2023-04-24T14:41:53;8.33;;;3.60;;
7957;SDS011;4024;52.172;5.378;2023-04-24T14:44:18;10.80;;;3.97;;
7957;SDS011;4024;52.172;5.378;2023-04-24T14:46:44;10.87;;;4.10;;
7957;SDS011;4024;52.172;5.378;2023-04-24T14:49:10;11.63;;;4.53;;
7957;SDS011;4024;52.172;5.378;2023-04-24T14:51:37;14.20;;;4.70;;
7957;SDS011;4024;52.172;5.378;2023-04-24T14:54:03;14.47;;;4.47;;
7957;SDS011;4024;52.172;5.378;2023-04-24T14:56:28;10.07;;;4.00;;
7957;SDS011;4024;52.172;5.378;2023-04-24T14:58:54;13.43;;;4.73;;
7957;SDS011;4024;52.172;5.378;2023-04-24T15:01:20;11.73;;;3.83;;
7957;SDS011;4024;52.172;5.378;2023-04-24T15:03:46;8.60;;;3.70;;
7957;SDS011;4024;52.172;5.378;2023-04-24T15:06:12;10.30;;;3.70;;
7957;SDS011;4024;52.172;5.378;2023-04-24T15:08:38;7.73;;;3.63;;
7957;SDS011;4024;52.172;5.378;2023-04-24T15:11:04;9.33;;;4.13;;
7957;SDS011;4024;52.172;5.378;2023-04-24T15:13:30;10.27;;;4.00;;
7957;SDS011;4024;52.172;5.378;2023-04-24T15:15:55;8.30;;;4.27;;
7957;SDS011;4024;52.172;5.378;2023-04-24T15:18:21;10.93;;;4.37;;
7957;SDS011;4024;52.172;5.378;2023-04-24T15:20:47;7.83;;;3.93;;